Terminal Aerodrome Forecast
Issued by NWS

Home | Current Version | Previous Version | Text Only | Print | Product List | Glossary On
Versions: 1 2 3 4 5 6 7 8 9 10 11 12 13 14 15 16
000
FTUS42 KFFC 251400 AAA
TAFPDK
TAF AMD
KPDK 251400Z 2514/2612 15008KT P6SM VCSH BKN006
     FM251600 21008G13KT P6SM VCSH SCT008 BKN025
     FM251800 22010G16KT P6SM VCSH SCT012 BKN050
      TEMPO 2520/2524 2SM TSRA BKN012CB
     FM260000 23009G15KT P6SM BKN050
     FM260600 25011G17KT P6SM SCT050=

USA.gov is the U.S. government's official web portal to all federal, state and local government web resources and services.